sensor_id;sensor_type;location;lat;lon;timestamp;P1;durP1;ratioP1;P2;durP2;ratioP2
39948;SDS011;29070;48.102;-1.652;2023-01-25T00:00:33;47.25;;;14.63;;
39948;SDS011;29070;48.102;-1.652;2023-01-25T00:05:33;49.47;;;15.33;;
39948;SDS011;29070;48.102;-1.652;2023-01-25T00:10:33;46.67;;;14.23;;
39948;SDS011;29070;48.102;-1.652;2023-01-25T00:15:34;45.47;;;14.57;;
39948;SDS011;29070;48.102;-1.652;2023-01-25T00:20:34;48.47;;;15.93;;
39948;SDS011;29070;48.102;-1.652;2023-01-25T00:25:34;48.17;;;14.43;;
39948;SDS011;29070;48.102;-1.652;2023-01-25T00:30:35;46.70;;;15.23;;
39948;SDS011;29070;48.102;-1.652;2023-01-25T00:35:35;43.50;;;14.53;;
39948;SDS011;29070;48.102;-1.652;2023-01-25T00:40:36;38.77;;;12.93;;
39948;SDS011;29070;48.102;-1.652;2023-01-25T00:45:36;42.87;;;13.07;;
39948;SDS011;29070;48.102;-1.652;2023-01-25T00:50:36;34.87;;;12.27;;
39948;SDS011;29070;48.102;-1.652;2023-01-25T00:55:37;36.20;;;12.70;;
39948;SDS011;29070;48.102;-1.652;2023-01-25T01:00:37;37.93;;;12.37;;
39948;SDS011;29070;48.102;-1.652;2023-01-25T01:05:37;32.53;;;11.47;;
39948;SDS011;29070;48.102;-1.652;2023-01-25T01:10:38;37.00;;;11.83;;
39948;SDS011;29070;48.102;-1.652;2023-01-25T01:15:38;38.50;;;12.95;;
39948;SDS011;29070;48.102;-1.652;2023-01-25T01:20:39;41.47;;;15.07;;
39948;SDS011;29070;48.102;-1.652;2023-01-25T01:25:39;44.90;;;13.97;;
39948;SDS011;29070;48.102;-1.652;2023-01-25T01:30:40;41.10;;;14.10;;
39948;SDS011;29070;48.102;-1.652;2023-01-25T01:35:40;43.80;;;13.52;;
39948;SDS011;29070;48.102;-1.652;2023-01-25T01:40:44;41.90;;;13.38;;
39948;SDS011;29070;48.102;-1.652;2023-01-25T01:50:50;41.08;;;13.00;;
39948;SDS011;29070;48.102;-1.652;2023-01-25T01:55:54;43.22;;;14.50;;
39948;SDS011;29070;48.102;-1.652;2023-01-25T02:00:58;49.08;;;15.27;;
39948;SDS011;29070;48.102;-1.652;2023-01-25T02:06:00;46.13;;;15.07;;
39948;SDS011;29070;48.102;-1.652;2023-01-25T02:11:05;45.95;;;15.80;;
39948;SDS011;29070;48.102;-1.652;2023-01-25T02:16:10;48.50;;;14.65;;
39948;SDS011;29070;48.102;-1.652;2023-01-25T02:21:15;44.72;;;14.85;;
39948;SDS011;29070;48.102;-1.652;2023-01-25T02:26:16;45.40;;;15.13;;
39948;SDS011;29070;48.102;-1.652;2023-01-25T02:31:18;45.58;;;14.95;;
39948;SDS011;29070;48.102;-1.652;2023-01-25T02:36:32;45.50;;;16.33;;
39948;SDS011;29070;48.102;-1.652;2023-01-25T02:46:38;42.35;;;13.45;;
39948;SDS011;29070;48.102;-1.652;2023-01-25T02:51:44;44.85;;;14.32;;
39948;SDS011;29070;48.102;-1.652;2023-01-25T02:56:46;45.20;;;14.65;;
39948;SDS011;29070;48.102;-1.652;2023-01-25T03:01:47;43.42;;;14.60;;
39948;SDS011;29070;48.102;-1.652;2023-01-25T03:06:48;46.67;;;14.45;;
39948;SDS011;29070;48.102;-1.652;2023-01-25T03:11:49;55.53;;;16.90;;
39948;SDS011;29070;48.102;-1.652;2023-01-25T03:16:49;47.90;;;16.33;;
39948;SDS011;29070;48.102;-1.652;2023-01-25T03:21:50;47.57;;;15.77;;
39948;SDS011;29070;48.102;-1.652;2023-01-25T03:26:50;51.03;;;15.93;;
39948;SDS011;29070;48.102;-1.652;2023-01-25T03:32:09;49.67;;;15.40;;
39948;SDS011;29070;48.102;-1.652;2023-01-25T03:37:09;51.25;;;16.45;;
39948;SDS011;29070;48.102;-1.652;2023-01-25T03:42:10;46.03;;;15.57;;
39948;SDS011;29070;48.102;-1.652;2023-01-25T03:47:10;53.47;;;16.30;;
39948;SDS011;29070;48.102;-1.652;2023-01-25T03:52:11;49.55;;;15.48;;
39948;SDS011;29070;48.102;-1.652;2023-01-25T03:57:11;52.93;;;14.97;;
39948;SDS011;29070;48.102;-1.652;2023-01-25T04:02:12;45.75;;;14.10;;
39948;SDS011;29070;48.102;-1.652;2023-01-25T04:07:13;46.78;;;14.57;;
39948;SDS011;29070;48.102;-1.652;2023-01-25T04:12:13;47.43;;;15.07;;
39948;SDS011;29070;48.102;-1.652;2023-01-25T04:17:14;42.73;;;13.17;;
39948;SDS011;29070;48.102;-1.652;2023-01-25T04:22:15;45.33;;;14.05;;
39948;SDS011;29070;48.102;-1.652;2023-01-25T04:27:15;45.67;;;14.63;;
39948;SDS011;29070;48.102;-1.652;2023-01-25T04:32:16;43.80;;;13.47;;
39948;SDS011;29070;48.102;-1.652;2023-01-25T04:37:16;40.93;;;13.53;;
39948;SDS011;29070;48.102;-1.652;2023-01-25T04:42:16;40.10;;;13.57;;
39948;SDS011;29070;48.102;-1.652;2023-01-25T04:47:17;44.50;;;13.17;;
39948;SDS011;29070;48.102;-1.652;2023-01-25T04:52:17;39.03;;;13.03;;
39948;SDS011;29070;48.102;-1.652;2023-01-25T04:57:17;48.25;;;13.88;;
39948;SDS011;29070;48.102;-1.652;2023-01-25T05:02:18;43.25;;;11.43;;
39948;SDS011;29070;48.102;-1.652;2023-01-25T05:07:18;37.47;;;11.25;;
39948;SDS011;29070;48.102;-1.652;2023-01-25T05:12:19;39.08;;;10.88;;
39948;SDS011;29070;48.102;-1.652;2023-01-25T05:17:19;39.13;;;10.73;;
39948;SDS011;29070;48.102;-1.652;2023-01-25T05:22:19;37.00;;;10.95;;
39948;SDS011;29070;48.102;-1.652;2023-01-25T05:27:21;36.58;;;10.35;;
39948;SDS011;29070;48.102;-1.652;2023-01-25T05:32:22;34.95;;;11.07;;
39948;SDS011;29070;48.102;-1.652;2023-01-25T05:37:23;36.92;;;11.45;;
39948;SDS011;29070;48.102;-1.652;2023-01-25T05:42:23;48.67;;;14.33;;
39948;SDS011;29070;48.102;-1.652;2023-01-25T05:47:24;48.60;;;13.77;;
39948;SDS011;29070;48.102;-1.652;2023-01-25T05:52:24;56.97;;;15.53;;
39948;SDS011;29070;48.102;-1.652;2023-01-25T05:57:24;59.72;;;14.98;;
39948;SDS011;29070;48.102;-1.652;2023-01-25T06:02:25;45.50;;;14.18;;
39948;SDS011;29070;48.102;-1.652;2023-01-25T06:07:25;53.73;;;15.50;;
39948;SDS011;29070;48.102;-1.652;2023-01-25T06:12:25;42.77;;;14.80;;
39948;SDS011;29070;48.102;-1.652;2023-01-25T06:17:26;52.50;;;15.15;;
39948;SDS011;29070;48.102;-1.652;2023-01-25T06:22:26;48.67;;;14.47;;
39948;SDS011;29070;48.102;-1.652;2023-01-25T06:27:27;49.47;;;15.65;;
39948;SDS011;29070;48.102;-1.652;2023-01-25T06:32:30;53.00;;;16.03;;
39948;SDS011;29070;48.102;-1.652;2023-01-25T06:37:31;60.80;;;16.40;;
39948;SDS011;29070;48.102;-1.652;2023-01-25T06:42:31;52.50;;;15.23;;
39948;SDS011;29070;48.102;-1.652;2023-01-25T06:47:32;44.50;;;14.03;;
39948;SDS011;29070;48.102;-1.652;2023-01-25T06:52:32;46.25;;;13.32;;
39948;SDS011;29070;48.102;-1.652;2023-01-25T06:57:35;46.88;;;13.38;;
39948;SDS011;29070;48.102;-1.652;2023-01-25T07:02:35;50.43;;;15.53;;
39948;SDS011;29070;48.102;-1.652;2023-01-25T07:07:36;55.70;;;16.08;;
39948;SDS011;29070;48.102;-1.652;2023-01-25T07:12:36;55.40;;;14.95;;
39948;SDS011;29070;48.102;-1.652;2023-01-25T07:17:37;49.15;;;15.18;;
39948;SDS011;29070;48.102;-1.652;2023-01-25T07:22:37;49.53;;;14.77;;
39948;SDS011;29070;48.102;-1.652;2023-01-25T07:27:37;46.00;;;14.67;;
39948;SDS011;29070;48.102;-1.652;2023-01-25T07:32:38;47.67;;;15.80;;
39948;SDS011;29070;48.102;-1.652;2023-01-25T07:37:38;54.35;;;17.23;;
39948;SDS011;29070;48.102;-1.652;2023-01-25T07:42:39;44.80;;;14.97;;
39948;SDS011;29070;48.102;-1.652;2023-01-25T07:47:39;47.80;;;16.08;;
39948;SDS011;29070;48.102;-1.652;2023-01-25T07:52:40;46.25;;;15.13;;
39948;SDS011;29070;48.102;-1.652;2023-01-25T07:57:40;49.92;;;15.30;;
39948;SDS011;29070;48.102;-1.652;2023-01-25T08:02:41;45.78;;;14.57;;
39948;SDS011;29070;48.102;-1.652;2023-01-25T08:07:41;40.45;;;14.18;;
39948;SDS011;29070;48.102;-1.652;2023-01-25T08:12:45;51.35;;;14.20;;
39948;SDS011;29070;48.102;-1.652;2023-01-25T08:17:46;47.15;;;14.68;;
39948;SDS011;29070;48.102;-1.652;2023-01-25T08:22:46;39.80;;;13.80;;
39948;SDS011;29070;48.102;-1.652;2023-01-25T08:27:46;45.67;;;15.17;;
39948;SDS011;29070;48.102;-1.652;2023-01-25T08:32:47;44.20;;;14.43;;
39948;SDS011;29070;48.102;-1.652;2023-01-25T08:37:47;46.23;;;16.37;;
39948;SDS011;29070;48.102;-1.652;2023-01-25T08:42:47;51.37;;;15.17;;
39948;SDS011;29070;48.102;-1.652;2023-01-25T08:47:48;46.75;;;14.70;;
39948;SDS011;29070;48.102;-1.652;2023-01-25T08:52:48;46.22;;;15.02;;
39948;SDS011;29070;48.102;-1.652;2023-01-25T08:57:50;41.45;;;13.85;;
39948;SDS011;29070;48.102;-1.652;2023-01-25T09:02:51;46.23;;;13.97;;
39948;SDS011;29070;48.102;-1.652;2023-01-25T09:07:51;47.57;;;14.00;;
39948;SDS011;29070;48.102;-1.652;2023-01-25T09:12:51;45.33;;;15.50;;
39948;SDS011;29070;48.102;-1.652;2023-01-25T09:17:55;48.33;;;14.52;;
39948;SDS011;29070;48.102;-1.652;2023-01-25T09:22:56;48.03;;;16.00;;
39948;SDS011;29070;48.102;-1.652;2023-01-25T09:27:56;49.33;;;14.50;;
39948;SDS011;29070;48.102;-1.652;2023-01-25T09:32:56;53.10;;;15.77;;
39948;SDS011;29070;48.102;-1.652;2023-01-25T09:37:57;56.10;;;16.52;;
39948;SDS011;29070;48.102;-1.652;2023-01-25T09:53:53;56.08;;;16.52;;
39948;SDS011;29070;48.102;-1.652;2023-01-25T09:58:56;48.75;;;15.82;;
39948;SDS011;29070;48.102;-1.652;2023-01-25T10:04:00;53.27;;;16.57;;
39948;SDS011;29070;48.102;-1.652;2023-01-25T10:14:24;53.90;;;15.35;;
39948;SDS011;29070;48.102;-1.652;2023-01-25T10:30:03;61.88;;;18.58;;
39948;SDS011;29070;48.102;-1.652;2023-01-25T10:35:28;46.60;;;14.93;;
39948;SDS011;29070;48.102;-1.652;2023-01-25T10:40:38;46.95;;;16.40;;
39948;SDS011;29070;48.102;-1.652;2023-01-25T10:45:45;53.90;;;17.08;;
39948;SDS011;29070;48.102;-1.652;2023-01-25T10:50:51;62.80;;;16.70;;
39948;SDS011;29070;48.102;-1.652;2023-01-25T10:56:01;51.78;;;15.60;;
39948;SDS011;29070;48.102;-1.652;2023-01-25T11:01:06;52.47;;;16.30;;
39948;SDS011;29070;48.102;-1.652;2023-01-25T11:06:09;63.90;;;22.45;;
39948;SDS011;29070;48.102;-1.652;2023-01-25T11:16:24;56.15;;;16.30;;
39948;SDS011;29070;48.102;-1.652;2023-01-25T11:21:34;68.20;;;20.00;;
39948;SDS011;29070;48.102;-1.652;2023-01-25T11:26:35;64.00;;;19.67;;
39948;SDS011;29070;48.102;-1.652;2023-01-25T11:31:37;49.17;;;16.75;;
39948;SDS011;29070;48.102;-1.652;2023-01-25T11:36:50;54.22;;;16.48;;
39948;SDS011;29070;48.102;-1.652;2023-01-25T12:09:21;60.22;;;18.27;;
39948;SDS011;29070;48.102;-1.652;2023-01-25T12:25:09;68.50;;;21.35;;
39948;SDS011;29070;48.102;-1.652;2023-01-25T12:40:42;63.25;;;20.67;;
39948;SDS011;29070;48.102;-1.652;2023-01-25T12:45:48;57.33;;;17.88;;
39948;SDS011;29070;48.102;-1.652;2023-01-25T12:50:51;62.22;;;18.92;;
39948;SDS011;29070;48.102;-1.652;2023-01-25T12:55:55;54.15;;;18.45;;
39948;SDS011;29070;48.102;-1.652;2023-01-25T13:16:49;50.33;;;17.10;;
39948;SDS011;29070;48.102;-1.652;2023-01-25T13:21:50;58.05;;;20.17;;
39948;SDS011;29070;48.102;-1.652;2023-01-25T13:31:56;49.45;;;18.02;;
39948;SDS011;29070;48.102;-1.652;2023-01-25T13:36:57;77.20;;;22.63;;
39948;SDS011;29070;48.102;-1.652;2023-01-25T13:41:57;61.08;;;20.83;;
39948;SDS011;29070;48.102;-1.652;2023-01-25T13:46:59;60.90;;;19.15;;
39948;SDS011;29070;48.102;-1.652;2023-01-25T13:52:02;59.30;;;18.33;;
39948;SDS011;29070;48.102;-1.652;2023-01-25T13:57:14;63.40;;;20.75;;
39948;SDS011;29070;48.102;-1.652;2023-01-25T14:02:21;57.30;;;18.83;;
39948;SDS011;29070;48.102;-1.652;2023-01-25T14:07:30;58.25;;;18.55;;
39948;SDS011;29070;48.102;-1.652;2023-01-25T14:12:37;61.13;;;18.38;;
39948;SDS011;29070;48.102;-1.652;2023-01-25T14:17:39;52.70;;;16.90;;
39948;SDS011;29070;48.102;-1.652;2023-01-25T14:22:41;58.67;;;19.37;;
39948;SDS011;29070;48.102;-1.652;2023-01-25T14:27:48;62.83;;;18.10;;
39948;SDS011;29070;48.102;-1.652;2023-01-25T14:32:50;47.90;;;17.73;;
39948;SDS011;29070;48.102;-1.652;2023-01-25T14:37:52;61.72;;;20.20;;
39948;SDS011;29070;48.102;-1.652;2023-01-25T14:42:52;52.53;;;19.48;;
39948;SDS011;29070;48.102;-1.652;2023-01-25T14:47:54;65.00;;;25.70;;
39948;SDS011;29070;48.102;-1.652;2023-01-25T14:52:55;60.83;;;20.60;;
39948;SDS011;29070;48.102;-1.652;2023-01-25T14:57:58;54.88;;;20.45;;
39948;SDS011;29070;48.102;-1.652;2023-01-25T15:03:00;57.05;;;19.65;;
39948;SDS011;29070;48.102;-1.652;2023-01-25T15:18:38;49.60;;;17.42;;
39948;SDS011;29070;48.102;-1.652;2023-01-25T15:23:49;48.35;;;17.05;;
39948;SDS011;29070;48.102;-1.652;2023-01-25T15:28:52;51.25;;;17.50;;
39948;SDS011;29070;48.102;-1.652;2023-01-25T15:33:54;44.95;;;17.55;;
39948;SDS011;29070;48.102;-1.652;2023-01-25T15:38:56;54.67;;;19.77;;
39948;SDS011;29070;48.102;-1.652;2023-01-25T15:43:56;46.97;;;18.40;;
39948;SDS011;29070;48.102;-1.652;2023-01-25T15:48:56;36.83;;;14.57;;
39948;SDS011;29070;48.102;-1.652;2023-01-25T15:53:57;37.73;;;14.07;;
39948;SDS011;29070;48.102;-1.652;2023-01-25T15:58:58;42.70;;;16.58;;
39948;SDS011;29070;48.102;-1.652;2023-01-25T16:04:00;37.92;;;15.18;;
39948;SDS011;29070;48.102;-1.652;2023-01-25T16:09:02;45.25;;;19.63;;
39948;SDS011;29070;48.102;-1.652;2023-01-25T16:14:11;37.30;;;15.45;;
39948;SDS011;29070;48.102;-1.652;2023-01-25T16:19:16;44.47;;;17.83;;
39948;SDS011;29070;48.102;-1.652;2023-01-25T16:24:18;37.38;;;16.95;;
39948;SDS011;29070;48.102;-1.652;2023-01-25T16:29:18;39.42;;;14.65;;
39948;SDS011;29070;48.102;-1.652;2023-01-25T16:34:20;38.13;;;14.23;;
39948;SDS011;29070;48.102;-1.652;2023-01-25T16:39:22;46.13;;;13.63;;
39948;SDS011;29070;48.102;-1.652;2023-01-25T16:44:23;36.13;;;13.70;;
39948;SDS011;29070;48.102;-1.652;2023-01-25T16:49:24;33.42;;;14.57;;
39948;SDS011;29070;48.102;-1.652;2023-01-25T16:54:29;31.95;;;13.40;;
39948;SDS011;29070;48.102;-1.652;2023-01-25T16:59:29;33.45;;;13.77;;
39948;SDS011;29070;48.102;-1.652;2023-01-25T17:04:30;30.20;;;11.35;;
39948;SDS011;29070;48.102;-1.652;2023-01-25T17:09:31;27.80;;;12.98;;
39948;SDS011;29070;48.102;-1.652;2023-01-25T17:14:31;33.00;;;13.13;;
39948;SDS011;29070;48.102;-1.652;2023-01-25T17:19:31;43.07;;;17.67;;
39948;SDS011;29070;48.102;-1.652;2023-01-25T17:24:32;35.03;;;13.87;;
39948;SDS011;29070;48.102;-1.652;2023-01-25T17:29:34;41.33;;;14.13;;
39948;SDS011;29070;48.102;-1.652;2023-01-25T17:34:35;34.43;;;13.20;;
39948;SDS011;29070;48.102;-1.652;2023-01-25T17:39:35;34.42;;;13.50;;
39948;SDS011;29070;48.102;-1.652;2023-01-25T17:44:35;32.70;;;13.85;;
39948;SDS011;29070;48.102;-1.652;2023-01-25T17:49:36;37.53;;;15.17;;
39948;SDS011;29070;48.102;-1.652;2023-01-25T17:54:36;33.90;;;14.70;;
39948;SDS011;29070;48.102;-1.652;2023-01-25T17:59:36;35.47;;;14.57;;
39948;SDS011;29070;48.102;-1.652;2023-01-25T18:04:37;34.03;;;13.87;;
39948;SDS011;29070;48.102;-1.652;2023-01-25T18:09:38;37.05;;;15.73;;
39948;SDS011;29070;48.102;-1.652;2023-01-25T18:14:38;30.20;;;11.95;;
39948;SDS011;29070;48.102;-1.652;2023-01-25T18:19:39;33.70;;;13.50;;
39948;SDS011;29070;48.102;-1.652;2023-01-25T18:24:41;32.92;;;13.93;;
39948;SDS011;29070;48.102;-1.652;2023-01-25T18:34:44;37.92;;;14.73;;
39948;SDS011;29070;48.102;-1.652;2023-01-25T18:39:47;42.67;;;17.60;;
39948;SDS011;29070;48.102;-1.652;2023-01-25T18:44:49;36.78;;;16.10;;
39948;SDS011;29070;48.102;-1.652;2023-01-25T18:49:50;65.43;;;29.13;;
39948;SDS011;29070;48.102;-1.652;2023-01-25T18:54:51;52.83;;;25.77;;
39948;SDS011;29070;48.102;-1.652;2023-01-25T18:59:53;40.40;;;16.30;;
39948;SDS011;29070;48.102;-1.652;2023-01-25T19:04:54;30.75;;;14.68;;
39948;SDS011;29070;48.102;-1.652;2023-01-25T19:09:54;38.33;;;16.45;;
39948;SDS011;29070;48.102;-1.652;2023-01-25T19:14:54;30.73;;;14.40;;
39948;SDS011;29070;48.102;-1.652;2023-01-25T19:19:55;35.72;;;14.60;;
39948;SDS011;29070;48.102;-1.652;2023-01-25T19:24:55;34.40;;;14.90;;
39948;SDS011;29070;48.102;-1.652;2023-01-25T19:29:56;30.87;;;13.73;;
39948;SDS011;29070;48.102;-1.652;2023-01-25T19:34:56;30.10;;;13.17;;
39948;SDS011;29070;48.102;-1.652;2023-01-25T19:39:56;37.87;;;15.60;;
39948;SDS011;29070;48.102;-1.652;2023-01-25T19:44:57;31.37;;;14.03;;
39948;SDS011;29070;48.102;-1.652;2023-01-25T19:50:00;32.13;;;14.70;;
39948;SDS011;29070;48.102;-1.652;2023-01-25T19:55:01;31.10;;;13.70;;
39948;SDS011;29070;48.102;-1.652;2023-01-25T20:00:03;33.60;;;12.93;;
39948;SDS011;29070;48.102;-1.652;2023-01-25T20:05:04;33.90;;;14.27;;
39948;SDS011;29070;48.102;-1.652;2023-01-25T20:10:05;33.20;;;15.32;;
39948;SDS011;29070;48.102;-1.652;2023-01-25T20:15:06;35.17;;;15.18;;
39948;SDS011;29070;48.102;-1.652;2023-01-25T20:20:07;32.72;;;15.57;;
39948;SDS011;29070;48.102;-1.652;2023-01-25T20:25:09;34.67;;;15.85;;
39948;SDS011;29070;48.102;-1.652;2023-01-25T20:30:09;43.85;;;19.20;;
39948;SDS011;29070;48.102;-1.652;2023-01-25T20:35:10;35.42;;;16.77;;
39948;SDS011;29070;48.102;-1.652;2023-01-25T20:40:10;35.37;;;16.80;;
39948;SDS011;29070;48.102;-1.652;2023-01-25T20:45:11;37.42;;;15.15;;
39948;SDS011;29070;48.102;-1.652;2023-01-25T20:50:15;37.72;;;15.98;;
39948;SDS011;29070;48.102;-1.652;2023-01-25T20:55:16;34.13;;;14.85;;
39948;SDS011;29070;48.102;-1.652;2023-01-25T21:00:16;36.50;;;15.03;;
39948;SDS011;29070;48.102;-1.652;2023-01-25T21:05:17;38.42;;;16.77;;
39948;SDS011;29070;48.102;-1.652;2023-01-25T21:10:17;50.95;;;21.27;;
39948;SDS011;29070;48.102;-1.652;2023-01-25T21:15:18;40.88;;;18.88;;
39948;SDS011;29070;48.102;-1.652;2023-01-25T21:20:18;42.30;;;18.33;;
39948;SDS011;29070;48.102;-1.652;2023-01-25T21:25:19;51.50;;;20.40;;
39948;SDS011;29070;48.102;-1.652;2023-01-25T21:30:19;41.70;;;18.43;;
39948;SDS011;29070;48.102;-1.652;2023-01-25T21:35:19;39.50;;;16.63;;
39948;SDS011;29070;48.102;-1.652;2023-01-25T21:40:20;40.67;;;17.60;;
39948;SDS011;29070;48.102;-1.652;2023-01-25T21:45:20;43.23;;;18.37;;
39948;SDS011;29070;48.102;-1.652;2023-01-25T21:50:39;37.95;;;18.33;;
39948;SDS011;29070;48.102;-1.652;2023-01-25T21:55:58;40.70;;;18.55;;
39948;SDS011;29070;48.102;-1.652;2023-01-25T22:01:01;40.73;;;18.00;;
39948;SDS011;29070;48.102;-1.652;2023-01-25T22:06:03;39.20;;;17.23;;
39948;SDS011;29070;48.102;-1.652;2023-01-25T22:11:04;48.53;;;18.63;;
39948;SDS011;29070;48.102;-1.652;2023-01-25T22:21:13;41.78;;;19.20;;
39948;SDS011;29070;48.102;-1.652;2023-01-25T22:26:17;46.40;;;19.80;;
39948;SDS011;29070;48.102;-1.652;2023-01-25T22:31:20;50.92;;;19.88;;
39948;SDS011;29070;48.102;-1.652;2023-01-25T22:36:23;40.55;;;19.27;;
39948;SDS011;29070;48.102;-1.652;2023-01-25T22:41:28;50.65;;;20.70;;
39948;SDS011;29070;48.102;-1.652;2023-01-25T22:46:30;47.85;;;18.95;;
39948;SDS011;29070;48.102;-1.652;2023-01-25T22:51:31;43.80;;;19.10;;
39948;SDS011;29070;48.102;-1.652;2023-01-25T22:56:31;44.95;;;18.33;;
39948;SDS011;29070;48.102;-1.652;2023-01-25T23:01:33;44.92;;;18.77;;
39948;SDS011;29070;48.102;-1.652;2023-01-25T23:06:34;43.60;;;19.23;;
39948;SDS011;29070;48.102;-1.652;2023-01-25T23:11:35;41.50;;;19.55;;
39948;SDS011;29070;48.102;-1.652;2023-01-25T23:16:36;50.58;;;20.45;;
39948;SDS011;29070;48.102;-1.652;2023-01-25T23:21:36;52.43;;;20.97;;
39948;SDS011;29070;48.102;-1.652;2023-01-25T23:26:37;50.45;;;22.30;;
39948;SDS011;29070;48.102;-1.652;2023-01-25T23:31:37;53.03;;;22.63;;
39948;SDS011;29070;48.102;-1.652;2023-01-25T23:36:38;55.27;;;22.80;;
39948;SDS011;29070;48.102;-1.652;2023-01-25T23:41:40;59.50;;;24.10;;
39948;SDS011;29070;48.102;-1.652;2023-01-25T23:46:40;55.10;;;23.87;;
39948;SDS011;29070;48.102;-1.652;2023-01-25T23:51:41;59.40;;;25.10;;
39948;SDS011;29070;48.102;-1.652;2023-01-25T23:56:41;62.13;;;25.93;;
